Time;durP1;ratioP1;P1;durP2;ratioP2;P2;SDS_P1;SDS_P2;PMS_P1;PMS_P2;Temp;Humidity;BMP_temperature;BMP_pressure;BME280_temperature;BME280_humidity;BME280_pressure;Samples;Min_cycle;Max_cycle;Signal;HPM_P1;HPM_P2
2022/09/22 00:02:47;;;;;;;6.53;3.20;;;;;;;11.31;57.92;99494.28;7034795;28;20297;-81
2022/09/22 00:06:10;;;;;;;3.23;2.97;;;;;;;11.07;57.39;99491.97;7034837;28;20201;-82
2022/09/22 00:09:33;;;;;;;4.17;3.20;;;;;;;10.31;59.88;99488.09;7009367;28;20343;-81
2022/09/22 00:12:55;;;;;;;3.83;3.27;;;;;;;11.06;58.70;99482.19;7006818;28;20304;-81
2022/09/22 00:16:17;;;;;;;3.73;3.43;;;;;;;11.41;57.36;99481.31;7006463;28;20221;-82
2022/09/22 00:19:39;;;;;;;3.53;3.07;;;;;;;11.51;56.67;99483.66;7005952;28;20318;-81
2022/09/22 00:23:00;;;;;;;3.80;3.37;;;;;;;11.28;57.07;99461.44;7006229;28;20247;-81
2022/09/22 00:26:24;;;;;;;3.40;3.10;;;;;;;11.40;56.51;99476.09;7005506;28;20304;-81
2022/09/22 00:29:45;;;;;;;3.33;3.03;;;;;;;11.17;56.19;99478.97;7005106;28;20200;-81
2022/09/22 00:33:07;;;;;;;3.83;2.97;;;;;;;10.98;57.38;99460.72;7005917;28;20219;-81
2022/09/22 00:36:29;;;;;;;3.37;3.03;;;;;;;10.70;58.00;99453.56;7004952;28;20686;-81
2022/09/22 00:39:52;;;;;;;4.03;3.17;;;;;;;10.78;57.97;99461.53;7004964;28;20213;-81
2022/09/22 00:43:18;;;;;;;3.50;3.17;;;;;;;10.97;57.51;99459.06;7005912;28;20677;-81
2022/09/22 00:46:41;;;;;;;3.97;3.20;;;;;;;10.22;57.80;99414.59;7003895;28;20226;-81
2022/09/22 00:50:10;;;;;;;3.73;2.97;;;;;;;10.94;57.21;99458.59;7004874;28;20256;-82
2022/09/22 00:53:31;;;;;;;4.90;2.83;;;;;;;10.67;57.51;99460.16;7005426;28;20547;-83
2022/09/22 00:56:56;;;;;;;3.60;2.90;;;;;;;10.55;57.73;99453.59;7005178;28;20288;-83
2022/09/22 01:00:19;;;;;;;3.23;2.93;;;;;;;11.02;56.10;99450.38;7004290;28;20359;-83
2022/09/22 01:03:41;;;;;;;4.13;3.37;;;;;;;10.59;56.85;99446.81;7004685;28;20351;-84
2022/09/22 01:07:03;;;;;;;7.20;3.53;;;;;;;10.45;58.38;99454.94;7005878;28;20274;-84
2022/09/22 01:10:26;;;;;;;4.03;3.73;;;;;;;10.26;58.31;99466.28;7005791;28;20265;-84
2022/09/22 01:14:03;;;;;;;3.97;3.63;;;;;;;10.32;58.31;99463.66;7007689;28;20202;-84
2022/09/22 01:17:34;;;;;;;5.33;3.40;;;;;;;10.09;58.92;99462.13;7007824;28;20445;-84
2022/09/22 01:21:19;;;;;;;3.77;3.47;;;;;;;10.10;59.22;99440.34;7007577;28;20187;-83
2022/09/22 01:24:58;;;;;;;3.27;2.97;;;;;;;10.48;57.63;99441.06;7007628;28;20193;-84
2022/09/22 01:28:41;;;;;;;3.80;3.50;;;;;;;10.36;57.15;99435.34;7007755;28;20686;-83
2022/09/22 01:32:06;;;;;;;3.57;3.27;;;;;;;10.10;58.18;99434.97;7007861;28;20229;-83
2022/09/22 01:35:31;;;;;;;3.90;3.60;;;;;;;9.85;59.38;99448.88;7007088;28;20295;-84
2022/09/22 01:39:01;;;;;;;3.77;3.47;;;;;;;10.05;58.64;99434.69;7007594;28;20298;-83
2022/09/22 01:42:27;;;;;;;3.50;3.20;;;;;;;9.96;59.76;99443.88;7007652;28;20189;-83
2022/09/22 01:45:49;;;;;;;3.80;3.50;;;;;;;9.96;59.44;99451.09;7007505;28;20186;-84
2022/09/22 01:49:14;;;;;;;3.87;3.10;;;;;;;10.35;58.28;99455.22;7007095;28;20314;-83
2022/09/22 01:52:36;;;;;;;3.63;3.27;;;;;;;10.32;57.75;99425.09;7007636;28;20692;-84
2022/09/22 01:56:00;;;;;;;2.90;2.70;;;;;;;10.27;58.20;99451.78;7008034;28;20762;-83
2022/09/22 01:59:24;;;;;;;3.40;3.17;;;;;;;10.05;57.53;99426.59;7008138;28;20239;-83
2022/09/22 02:02:51;;;;;;;4.53;3.33;;;;;;;9.39;58.39;99353.13;7009419;28;20243;-83
2022/09/22 02:06:17;;;;;;;3.30;3.00;;;;;;;10.15;57.83;99448.72;7009887;28;20182;-84
2022/09/22 02:09:39;;;;;;;5.43;3.47;;;;;;;10.09;58.01;99445.97;7009637;28;20198;-84
2022/09/22 02:13:01;;;;;;;4.17;3.50;;;;;;;9.40;58.21;99362.88;7009284;28;20225;-83
2022/09/22 02:16:24;;;;;;;4.17;3.40;;;;;;;9.57;59.28;99443.25;7008129;28;20361;-84
2022/09/22 02:19:45;;;;;;;4.40;3.37;;;;;;;9.72;59.57;99462.13;7007995;28;20227;-83
2022/09/22 02:23:08;;;;;;;4.80;3.30;;;;;;;9.38;58.23;99328.06;7008932;28;20214;-83
2022/09/22 02:26:32;;;;;;;5.63;3.40;;;;;;;9.57;59.27;99458.59;7009534;28;20228;-83
2022/09/22 02:29:56;;;;;;;5.80;3.37;;;;;;;9.51;59.40;99435.91;7008283;28;20259;-84
2022/09/22 02:33:18;;;;;;;3.17;2.87;;;;;;;9.75;58.03;99402.53;7009186;28;20209;-84
2022/09/22 02:36:46;;;;;;;3.13;2.90;;;;;;;9.84;57.87;99426.50;7008118;28;20222;-83
2022/09/22 02:40:14;;;;;;;3.70;3.40;;;;;;;9.90;57.58;99427.59;7007313;28;20251;-83
2022/09/22 02:43:39;;;;;;;3.50;3.20;;;;;;;9.58;58.53;99436.03;7007284;28;20224;-84
2022/09/22 02:47:05;;;;;;;3.80;3.50;;;;;;;9.24;59.01;99425.78;7029127;28;20205;-86
2022/09/22 02:50:28;;;;;;;3.50;3.20;;;;;;;9.42;59.38;99425.41;7006836;28;20369;-83
2022/09/22 02:53:50;;;;;;;4.20;3.47;;;;;;;9.30;58.78;99390.06;7005417;28;20241;-83
2022/09/22 02:57:13;;;;;;;3.33;3.03;;;;;;;9.32;58.45;99354.88;7006283;28;20239;-83
2022/09/22 03:00:35;;;;;;;3.40;3.10;;;;;;;9.92;57.94;99439.03;7013031;28;20274;-82
2022/09/22 03:03:57;;;;;;;4.07;3.47;;;;;;;9.58;58.22;99418.00;7013308;28;20297;-82
2022/09/22 03:07:18;;;;;;;3.43;3.23;;;;;;;9.68;57.82;99421.28;7012331;28;20236;-81
2022/09/22 03:10:40;;;;;;;3.00;2.80;;;;;;;9.85;57.19;99425.47;7005398;28;20291;-83
2022/09/22 03:14:03;;;;;;;6.57;2.90;;;;;;;9.92;56.93;99415.63;7010471;28;20336;-81
2022/09/22 03:17:24;;;;;;;3.53;3.23;;;;;;;9.46;57.12;99432.13;7010747;28;20699;-83
2022/09/22 03:20:46;;;;;;;3.77;2.97;;;;;;;9.20;58.10;99411.00;7010924;28;20255;-82
2022/09/22 03:24:08;;;;;;;3.80;3.40;;;;;;;9.34;58.75;99430.88;7010640;28;20258;-82
2022/09/22 03:27:29;;;;;;;3.77;3.47;;;;;;;9.52;58.41;99416.06;7009865;28;20609;-82
2022/09/22 03:30:52;;;;;;;4.10;3.30;;;;;;;9.11;58.13;99378.97;7009455;28;20713;-81
2022/09/22 03:34:14;;;;;;;3.13;2.83;;;;;;;9.46;58.51;99411.41;7010038;28;20625;-81
2022/09/22 03:37:35;;;;;;;5.23;3.17;;;;;;;9.55;58.07;99404.94;7009533;28;20389;-81
2022/09/22 03:40:57;;;;;;;2.97;2.67;;;;;;;9.39;57.25;99405.09;7007659;28;20223;-83
2022/09/22 03:44:19;;;;;;;3.50;3.30;;;;;;;9.40;58.35;99424.78;7004508;28;20204;-82
2022/09/22 03:47:41;;;;;;;3.23;3.00;;;;;;;9.28;58.33;99405.53;7004168;28;20279;-82
2022/09/22 03:51:03;;;;;;;3.97;3.67;;;;;;;9.29;58.58;99418.00;7004950;28;20211;-83
2022/09/22 03:54:25;;;;;;;3.90;3.60;;;;;;;8.96;59.47;99390.72;7004641;28;20300;-82
2022/09/22 03:57:46;;;;;;;3.27;2.97;;;;;;;9.04;58.89;99418.38;7005031;28;20232;-82
2022/09/22 04:01:10;;;;;;;3.40;2.90;;;;;;;8.99;59.61;99418.06;7004962;28;20234;-81
2022/09/22 04:04:32;;;;;;;3.53;3.23;;;;;;;9.00;59.51;99411.69;7003860;28;20239;-81
2022/09/22 04:07:54;;;;;;;3.63;3.33;;;;;;;8.83;59.49;99401.25;7004449;28;20348;-82
2022/09/22 04:11:16;;;;;;;3.33;3.07;;;;;;;9.23;58.81;99391.81;7032451;28;20198;-82
2022/09/22 04:14:37;;;;;;;3.07;2.87;;;;;;;9.50;57.44;99376.91;7032597;28;20233;-82
2022/09/22 04:17:59;;;;;;;4.43;2.90;;;;;;;9.29;58.25;99411.75;7003793;28;20227;-82
2022/09/22 04:21:22;;;;;;;3.53;3.03;;;;;;;9.37;58.10;99399.06;7004427;28;20837;-82
2022/09/22 04:24:43;;;;;;;3.30;2.80;;;;;;;9.45;57.65;99409.75;7008380;28;20204;-81
2022/09/22 04:28:05;;;;;;;6.47;4.53;;;;;;;9.40;57.60;99430.97;7007724;28;20280;-82
2022/09/22 04:31:27;;;;;;;3.50;3.20;;;;;;;9.06;58.05;99416.34;7010238;28;20349;-82
2022/09/22 04:34:50;;;;;;;3.20;2.97;;;;;;;9.40;57.30;99417.53;7009546;28;20355;-82
2022/09/22 04:38:12;;;;;;;3.40;3.10;;;;;;;8.69;58.35;99386.72;7009793;28;20309;-82
2022/09/22 04:41:34;;;;;;;3.97;3.40;;;;;;;9.36;57.99;99413.53;7010820;28;20613;-82
2022/09/22 04:45:00;;;;;;;3.27;3.07;;;;;;;9.16;57.47;99431.19;7010496;28;20216;-82
2022/09/22 04:48:22;;;;;;;4.17;3.60;;;;;;;8.78;59.20;99425.94;7013851;28;20228;-82
2022/09/22 04:51:43;;;;;;;4.77;4.30;;;;;;;9.23;57.90;99410.66;7031930;28;20207;-84
2022/09/22 04:55:08;;;;;;;4.13;3.80;;;;;;;9.35;56.78;99416.41;7017341;28;20221;-82
2022/09/22 04:58:30;;;;;;;7.07;3.70;;;;;;;9.04;57.00;99392.28;7009446;28;20323;-82
2022/09/22 05:01:51;;;;;;;4.00;3.53;;;;;;;8.95;57.52;99397.94;7015802;28;20898;-82
2022/09/22 05:05:13;;;;;;;5.40;3.57;;;;;;;8.75;58.90;99422.78;7014993;28;20211;-83
2022/09/22 05:08:35;;;;;;;3.70;3.40;;;;;;;8.53;59.30;99432.50;7010067;28;20262;-82
2022/09/22 05:11:58;;;;;;;3.67;3.37;;;;;;;8.64;59.55;99425.88;7010705;28;20212;-82
2022/09/22 05:15:20;;;;;;;4.47;4.07;;;;;;;8.92;59.36;99422.50;7010572;28;20246;-82
2022/09/22 05:18:41;;;;;;;5.23;4.00;;;;;;;9.11;58.29;99430.09;7010856;28;20714;-82
2022/09/22 05:22:03;;;;;;;4.80;4.17;;;;;;;9.16;57.99;99430.38;7011062;28;20679;-81
2022/09/22 05:25:25;;;;;;;5.20;3.73;;;;;;;8.99;57.24;99412.69;7031915;28;20207;-82
2022/09/22 05:28:49;;;;;;;7.50;3.93;;;;;;;9.32;57.16;99444.53;7036896;28;20314;-78
2022/09/22 05:32:12;;;;;;;4.10;3.80;;;;;;;8.89;57.48;99413.97;7029261;28;20207;-82
2022/09/22 05:35:34;;;;;;;3.70;3.40;;;;;;;9.38;58.44;99435.72;7026456;28;20667;-82
2022/09/22 05:38:55;;;;;;;4.00;3.60;;;;;;;9.36;57.48;99442.28;7022404;28;20295;-79
2022/09/22 05:42:17;;;;;;;5.93;5.33;;;;;;;9.26;56.77;99428.25;7032938;28;20209;-82
2022/09/22 05:45:40;;;;;;;4.30;3.63;;;;;;;8.61;57.06;99359.06;7031320;28;20196;-83
2022/09/22 05:49:01;;;;;;;3.93;3.60;;;;;;;8.67;58.33;99444.34;7034526;28;20721;-81
2022/09/22 05:52:23;;;;;;;5.03;3.80;;;;;;;8.69;58.67;99410.91;7034483;28;20293;-81
2022/09/22 05:55:44;;;;;;;8.57;7.67;;;;;;;8.92;58.38;99419.81;7036554;28;20951;-80
2022/09/22 05:59:06;;;;;;;4.43;4.03;;;;;;;8.92;58.78;99451.25;7034698;28;20274;-80
2022/09/22 06:02:28;;;;;;;8.90;6.67;;;;;;;8.92;58.68;99452.09;7035668;28;20232;-80
2022/09/22 06:05:50;;;;;;;16.17;9.57;;;;;;;8.82;58.56;99435.34;7034800;28;20293;-83
2022/09/22 06:09:12;;;;;;;6.57;5.70;;;;;;;9.14;59.33;99452.06;7035033;28;20276;-80
2022/09/22 06:12:33;;;;;;;5.53;5.03;;;;;;;9.51;57.50;99416.25;7030078;28;20204;-80
2022/09/22 06:15:55;;;;;;;6.40;3.97;;;;;;;10.20;56.45;99434.69;7033027;28;20276;-82
2022/09/22 06:19:17;;;;;;;3.90;3.60;;;;;;;11.04;54.66;99443.75;7031679;28;20315;-82
2022/09/22 06:22:39;;;;;;;3.90;3.60;;;;;;;11.23;53.46;99443.09;7032127;28;20714;-83
2022/09/22 06:26:00;;;;;;;3.80;3.43;;;;;;;11.49;54.05;99456.84;7032848;28;20299;-82
2022/09/22 06:29:22;;;;;;;4.50;3.67;;;;;;;11.72;52.92;99446.69;7031115;28;20217;-83
2022/09/22 06:32:44;;;;;;;5.70;4.43;;;;;;;12.35;51.63;99451.03;7032798;28;20254;-83
2022/09/22 06:36:08;;;;;;;6.87;4.30;;;;;;;12.14;52.97;99441.13;7031822;28;20204;-83
2022/09/22 06:39:33;;;;;;;7.67;4.97;;;;;;;12.42;52.86;99432.94;7031512;28;20224;-87
2022/09/22 06:43:13;;;;;;;6.50;5.40;;;;;;;12.12;52.64;99428.84;7026232;28;20225;-84
2022/09/22 06:46:35;;;;;;;4.60;4.20;;;;;;;12.57;53.09;99442.56;7037028;28;20231;-83
2022/09/22 06:49:56;;;;;;;4.40;3.97;;;;;;;13.41;51.58;99433.00;7041810;28;20224;-85
2022/09/22 06:53:20;;;;;;;4.23;3.93;;;;;;;13.31;51.17;99429.88;7054510;28;20226;-83
2022/09/22 06:56:42;;;;;;;4.80;3.73;;;;;;;13.53;50.70;99396.97;7043802;28;20227;-79
2022/09/22 07:00:05;;;;;;;4.07;3.77;;;;;;;13.94;49.10;99418.38;7030573;28;20674;-80
2022/09/22 07:03:27;;;;;;;3.67;3.37;;;;;;;14.78;48.75;99411.84;7030377;28;20279;-79
2022/09/22 07:06:49;;;;;;;5.93;3.53;;;;;;;15.14;47.24;99409.31;7029973;28;20315;-80
2022/09/22 07:10:12;;;;;;;4.40;4.00;;;;;;;14.89;48.44;99392.16;7028626;28;20201;-80
2022/09/22 07:13:38;;;;;;;7.43;4.53;;;;;;;14.78;48.77;99409.97;7029765;28;20228;-80
2022/09/22 07:17:00;;;;;;;4.63;4.20;;;;;;;14.81;49.05;99414.94;7029498;28;20213;-79
2022/09/22 07:20:22;;;;;;;6.93;5.00;;;;;;;15.16;47.77;99413.47;7030279;28;20217;-80
2022/09/22 07:23:43;;;;;;;6.80;5.00;;;;;;;15.60;47.83;99416.09;7028607;28;20198;-80
2022/09/22 07:27:06;;;;;;;5.93;4.40;;;;;;;15.52;47.73;99407.41;7028171;28;20225;-80
2022/09/22 07:30:29;;;;;;;6.00;4.60;;;;;;;15.12;49.39;99381.53;7006416;28;20348;-80
2022/09/22 07:33:52;;;;;;;6.13;4.70;;;;;;;15.80;48.33;99416.75;7016677;28;20202;-80
2022/09/22 07:37:14;;;;;;;5.63;4.30;;;;;;;16.14;47.37;99402.59;7026969;28;20713;-80
2022/09/22 07:40:36;;;;;;;5.40;4.80;;;;;;;16.38;45.88;99389.94;7027602;28;20320;-80
2022/09/22 07:45:11;;;;;;;5.03;4.53;;;;;;;16.79;45.82;99403.69;7010698;28;20203;-79
2022/09/22 07:51:24;;;;;;;5.07;4.57;;;;;;;17.64;44.27;99401.34;7015816;28;20277;-80
2022/09/22 07:54:45;;;;;;;12.17;9.20;;;;;;;17.75;43.93;99407.91;7007761;28;20208;-80
2022/09/22 07:58:07;;;;;;;8.20;5.30;;;;;;;17.69;43.32;99387.84;7033333;28;20231;-80
2022/09/22 08:01:33;;;;;;;6.50;5.30;;;;;;;18.54;43.10;99387.06;7034698;28;20231;-81
2022/09/22 08:05:01;;;;;;;6.53;5.17;;;;;;;19.10;40.67;99381.59;7032849;28;20204;-80
2022/09/22 08:08:22;;;;;;;5.03;4.20;;;;;;;18.29;42.58;99405.59;7033836;28;20276;-80
2022/09/22 08:11:47;;;;;;;5.00;4.00;;;;;;;19.08;42.04;99388.38;7034368;28;20723;-81
2022/09/22 08:15:10;;;;;;;5.03;3.90;;;;;;;19.40;40.97;99359.47;7031294;28;20648;-80
2022/09/22 08:18:34;;;;;;;7.00;6.30;;;;;;;20.06;40.03;99384.03;7004696;28;20275;-80
2022/09/22 08:21:55;;;;;;;6.47;3.90;;;;;;;20.25;38.97;99367.09;7016796;28;20225;-80
2022/09/22 08:25:17;;;;;;;4.70;3.73;;;;;;;19.86;40.14;99381.81;7033346;28;20212;-80
2022/09/22 08:28:38;;;;;;;5.17;3.57;;;;;;;19.72;41.04;99375.06;7033129;28;20385;-80
2022/09/22 08:31:59;;;;;;;4.03;3.63;;;;;;;20.39;38.51;99371.13;7033815;28;20296;-80
2022/09/22 08:35:22;;;;;;;3.80;3.40;;;;;;;20.65;39.00;99369.53;7032011;28;20197;-80
2022/09/22 08:38:48;;;;;;;4.30;2.90;;;;;;;20.29;38.73;99364.69;7031298;28;20744;-80
2022/09/22 08:42:13;;;;;;;3.33;2.10;;;;;;;21.52;35.80;99352.59;7031253;28;20548;-80
2022/09/22 08:45:37;;;;;;;2.83;2.20;;;;;;;19.59;37.85;99360.88;7030983;28;20280;-80
2022/09/22 08:52:47;;;;;;;4.00;1.83;;;;;;;19.69;38.19;99361.03;7005593;28;20189;-80
2022/09/22 08:56:16;;;;;;;2.50;2.30;;;;;;;19.31;38.20;99341.81;7029869;28;20680;-80
2022/09/22 08:59:43;;;;;;;2.10;2.00;;;;;;;18.58;40.60;99362.84;7031527;28;20323;-79
2022/09/22 09:03:19;;;;;;;2.53;2.30;;;;;;;18.89;40.14;99356.88;7031031;28;20203;-78
2022/09/22 09:06:45;;;;;;;2.87;2.20;;;;;;;18.79;41.46;99362.97;7018674;28;20217;-80
2022/09/22 09:10:20;;;;;;;2.47;1.97;;;;;;;19.83;37.79;99356.88;7030352;28;20214;-77
2022/09/22 09:13:52;;;;;;;2.70;2.40;;;;;;;19.46;39.57;99361.22;7018781;28;20208;-77
2022/09/22 09:17:16;;;;;;;2.17;2.00;;;;;;;19.46;39.43;99353.81;7011259;28;20217;-81
2022/09/22 09:20:43;;;;;;;4.60;2.33;;;;;;;19.75;38.56;99358.13;7031803;28;20387;-80
2022/09/22 09:24:06;;;;;;;2.30;2.10;;;;;;;20.24;37.80;99351.75;7031975;28;20297;-79
2022/09/22 09:27:34;;;;;;;2.70;2.33;;;;;;;19.91;38.02;99340.00;7030709;28;20212;-78
2022/09/22 09:31:03;;;;;;;5.40;2.30;;;;;;;18.13;41.56;99326.34;7030828;28;20217;-79
2022/09/22 09:34:27;;;;;;;2.23;1.83;;;;;;;18.75;41.07;99355.53;7030292;28;20571;-80
2022/09/22 09:37:49;;;;;;;2.73;2.47;;;;;;;19.45;40.38;99352.16;7029869;28;20240;-80
2022/09/22 09:41:13;;;;;;;2.93;2.50;;;;;;;18.98;40.09;99348.03;7029155;28;20358;-79
2022/09/22 09:44:39;;;;;;;2.20;2.00;;;;;;;19.66;39.46;99332.28;7029930;28;20201;-79
2022/09/22 09:48:09;;;;;;;2.97;2.10;;;;;;;19.68;38.29;99296.44;7028577;28;20227;-79
2022/09/22 09:51:34;;;;;;;2.70;2.10;;;;;;;19.67;39.27;99346.75;7029082;28;20303;-79
2022/09/22 09:54:56;;;;;;;2.10;1.90;;;;;;;19.84;39.23;99350.31;7029132;28;20670;-78
2022/09/22 10:01:56;;;;;;;3.93;2.00;;;;;;;20.89;37.12;99295.00;7028010;28;20232;-79
2022/09/22 10:05:25;;;;;;;1.97;1.77;;;;;;;21.57;35.56;99317.81;7030357;28;20688;-80
2022/09/22 10:08:50;;;;;;;1.90;1.80;;;;;;;22.38;35.61;99317.22;7029496;28;20244;-78
2022/09/22 10:12:24;;;;;;;3.13;2.07;;;;;;;22.35;34.47;99328.75;7025023;28;20226;-79
2022/09/22 10:16:01;;;;;;;2.70;1.80;;;;;;;22.41;33.78;99321.31;7030000;28;20630;-79
2022/09/22 10:19:27;;;;;;;1.63;1.53;;;;;;;22.82;33.12;99307.47;7029466;28;20221;-79
2022/09/22 10:22:49;;;;;;;2.30;1.80;;;;;;;21.86;33.28;99315.56;7029970;28;20366;-77
2022/09/22 10:26:25;;;;;;;2.30;1.80;;;;;;;21.41;34.94;99321.53;7029700;28;20200;-79
2022/09/22 10:29:46;;;;;;;1.47;1.37;;;;;;;21.63;34.33;99302.19;7028177;28;20553;-79
2022/09/22 10:33:16;;;;;;;1.70;1.60;;;;;;;21.30;34.59;99302.50;7031433;28;20274;-78
2022/09/22 10:36:44;;;;;;;1.60;1.50;;;;;;;21.85;33.21;99294.69;7024378;28;20251;-79
2022/09/22 10:40:14;;;;;;;1.53;1.43;;;;;;;22.95;32.25;99287.69;7000814;28;20238;-79
2022/09/22 10:43:42;;;;;;;1.57;1.47;;;;;;;21.63;33.76;99294.81;7014234;28;20674;-79
2022/09/22 10:47:15;;;;;;;1.70;1.60;;;;;;;21.74;33.24;99287.47;7030591;28;20692;-80
2022/09/22 10:50:54;;;;;;;1.73;1.63;;;;;;;21.06;35.13;99294.88;7029755;28;20212;-79
2022/09/22 10:54:28;;;;;;;3.30;1.40;;;;;;;22.45;32.70;99267.53;7012891;28;20206;-79
2022/09/22 10:58:18;;;;;;;1.40;1.30;;;;;;;23.82;30.99;99279.16;7008636;28;20304;-80
2022/09/22 11:01:48;;;;;;;1.40;1.30;;;;;;;23.84;29.36;99283.28;6993421;28;20368;-78
2022/09/22 11:12:53;;;;;;;3.00;1.30;;;;;;;21.16;32.69;99290.31;7020823;28;20260;-78
2022/09/22 11:16:37;;;;;;;1.40;1.30;;;;;;;22.50;30.93;99290.38;7029375;28;20243;-78
2022/09/22 11:20:21;;;;;;;1.60;1.50;;;;;;;22.33;30.35;99289.72;7025439;28;20273;-78
2022/09/22 11:23:56;;;;;;;1.10;1.10;;;;;;;22.66;29.57;99270.03;7028800;28;20193;-78
2022/09/22 11:27:25;;;;;;;2.03;1.47;;;;;;;21.85;31.31;99273.56;7029247;28;20257;-78
2022/09/22 11:30:50;;;;;;;1.53;1.40;;;;;;;22.81;30.56;99267.34;7022303;28;20291;-78
2022/09/22 11:34:25;;;;;;;2.67;1.83;;;;;;;23.61;29.15;99258.28;7022893;28;20202;-77
2022/09/22 11:37:54;;;;;;;1.60;1.50;;;;;;;23.32;28.86;99265.47;7021726;28;20320;-77
2022/09/22 11:41:30;;;;;;;1.50;1.40;;;;;;;21.39;30.68;99260.59;7028362;28;20317;-79
2022/09/22 11:45:01;;;;;;;1.50;1.40;;;;;;;22.37;31.32;99248.78;7031177;28;20350;-77
2022/09/22 11:48:36;;;;;;;1.47;1.40;;;;;;;23.84;28.71;99250.22;7029116;28;20311;-79
2022/09/22 11:52:05;;;;;;;9.57;3.00;;;;;;;21.93;32.06;99258.47;7029044;28;20206;-79
2022/09/22 11:55:33;;;;;;;2.43;1.57;;;;;;;22.82;30.48;99252.50;7029205;28;20230;-78
2022/09/22 11:58:58;;;;;;;1.60;1.50;;;;;;;23.41;29.75;99245.38;7027757;28;20752;-79
2022/09/22 12:02:25;;;;;;;1.37;1.27;;;;;;;22.86;30.26;99228.84;7029493;28;20222;-79
2022/09/22 12:05:52;;;;;;;2.77;1.43;;;;;;;24.31;28.78;99233.28;7031246;28;20203;-78
2022/09/22 12:09:23;;;;;;;1.30;1.27;;;;;;;24.58;27.81;99222.66;7004465;28;20286;-77
2022/09/22 12:12:47;;;;;;;1.80;1.43;;;;;;;24.84;26.35;99222.22;7000489;28;20671;-79
2022/09/22 12:16:17;;;;;;;1.50;1.40;;;;;;;23.06;29.25;99217.03;7004076;28;20202;-79
2022/09/22 12:19:50;;;;;;;1.40;1.30;;;;;;;23.73;28.13;99226.56;7000678;28;20189;-78
2022/09/22 12:23:18;;;;;;;1.97;1.07;;;;;;;24.38;26.92;99206.22;7003812;28;20267;-78
2022/09/22 12:26:41;;;;;;;1.43;1.33;;;;;;;24.00;26.86;99216.06;7000302;28;20592;-78
2022/09/22 12:30:06;;;;;;;2.00;1.40;;;;;;;24.59;26.16;99210.56;7002615;28;20290;-81
2022/09/22 12:33:28;;;;;;;1.37;1.27;;;;;;;23.26;27.63;99167.50;7004365;28;20659;-79
2022/09/22 12:36:52;;;;;;;1.50;1.40;;;;;;;24.31;26.93;99198.25;7000202;28;20314;-79
2022/09/22 12:40:28;;;;;;;1.67;1.27;;;;;;;23.59;26.94;99213.69;7000910;28;20210;-80
2022/09/22 12:43:49;;;;;;;1.13;1.13;;;;;;;23.14;28.01;99188.97;7007383;28;20552;-79
2022/09/22 12:47:19;;;;;;;0.97;0.97;;;;;;;23.55;27.02;99205.16;7017247;28;20359;-78
2022/09/22 12:50:42;;;;;;;1.93;1.30;;;;;;;24.39;25.95;99192.16;7021603;28;20289;-77
2022/09/22 12:54:36;;;;;;;2.67;1.10;;;;;;;22.16;29.32;99192.97;7005364;28;20206;-79
2022/09/22 12:58:01;;;;;;;1.23;1.00;;;;;;;23.08;27.80;99201.06;7014844;28;20236;-78
2022/09/22 13:01:32;;;;;;;2.17;1.43;;;;;;;22.50;28.39;99171.34;7007211;28;20236;-80
2022/09/22 13:05:31;;;;;;;1.37;1.27;;;;;;;22.35;29.44;99196.00;7010192;28;20675;-79
2022/09/22 13:09:17;;;;;;;1.10;1.10;;;;;;;23.97;26.70;99168.97;7031199;28;20275;-80
2022/09/22 13:12:38;;;;;;;1.10;1.10;;;;;;;23.87;27.15;99153.31;7005190;28;20224;-79
2022/09/22 13:16:02;;;;;;;1.50;1.40;;;;;;;23.89;27.75;99178.63;7032113;28;20206;-79
2022/09/22 13:19:23;;;;;;;1.33;1.30;;;;;;;24.44;26.93;99158.22;7031961;28;20667;-79
2022/09/22 13:22:45;;;;;;;1.87;1.10;;;;;;;22.64;26.47;99184.28;7017465;28;20270;-79
2022/09/22 13:26:07;;;;;;;1.60;1.07;;;;;;;23.09;27.68;99170.53;7009464;28;20286;-80
2022/09/22 13:29:29;;;;;;;1.77;1.20;;;;;;;23.51;26.82;99165.53;7007670;28;20276;-79
2022/09/22 13:32:52;;;;;;;2.80;1.47;;;;;;;24.31;26.46;99164.38;7024108;28;20208;-79
2022/09/22 13:36:15;;;;;;;1.87;1.10;;;;;;;23.83;26.87;99148.63;7016409;28;20706;-79
2022/09/22 13:39:38;;;;;;;1.87;1.47;;;;;;;24.18;25.95;99151.25;7024973;28;20346;-78
2022/09/22 13:43:04;;;;;;;1.77;1.50;;;;;;;24.75;25.75;99156.91;7030212;28;20250;-79
2022/09/22 13:46:27;;;;;;;2.10;1.27;;;;;;;24.33;26.06;99153.88;7013983;28;20199;-80
2022/09/22 13:49:53;;;;;;;1.57;1.47;;;;;;;23.73;26.94;99157.72;7003103;28;20796;-79
2022/09/22 13:53:16;;;;;;;1.93;1.13;;;;;;;23.53;27.68;99157.81;7003102;28;20702;-79
2022/09/22 13:56:40;;;;;;;1.33;1.23;;;;;;;23.66;26.64;99159.97;7003443;28;20224;-78
2022/09/22 14:00:03;;;;;;;2.40;1.43;;;;;;;24.20;26.46;99122.25;7022393;28;20194;-79
2022/09/22 14:03:25;;;;;;;1.97;1.20;;;;;;;24.67;25.57;99128.00;7030799;28;20217;-79
2022/09/22 14:06:49;;;;;;;1.63;1.40;;;;;;;24.53;25.93;99146.28;7031132;28;20297;-79
2022/09/22 14:10:14;;;;;;;4.03;1.43;;;;;;;24.17;26.62;99150.41;7030371;28;20205;-78
2022/09/22 14:13:40;;;;;;;1.40;1.30;;;;;;;23.17;27.38;99148.00;7031399;28;20201;-79
2022/09/22 14:17:04;;;;;;;1.10;1.10;;;;;;;24.10;26.81;99143.53;7031127;28;20257;-79
2022/09/22 14:20:26;;;;;;;2.20;1.90;;;;;;;23.81;27.94;99135.13;7030798;28;20290;-79
2022/09/22 14:23:50;;;;;;;1.67;1.30;;;;;;;24.21;27.55;99136.88;7033506;28;20254;-79
2022/09/22 14:27:18;;;;;;;1.60;1.50;;;;;;;24.21;26.03;99123.09;7033716;28;20593;-79
2022/09/22 14:30:41;;;;;;;1.40;1.30;;;;;;;23.78;26.84;99130.16;7030187;28;20186;-79
2022/09/22 14:34:06;;;;;;;1.90;1.50;;;;;;;23.51;28.33;99115.97;7030131;28;20225;-79
2022/09/22 14:37:31;;;;;;;1.30;1.20;;;;;;;23.65;27.59;99122.53;7029116;28;20578;-79
2022/09/22 14:40:55;;;;;;;2.20;1.43;;;;;;;24.04;26.79;99114.38;7021586;28;20200;-79
2022/09/22 14:44:34;;;;;;;1.47;1.37;;;;;;;23.72;27.17;99116.72;7002587;28;20339;-79
2022/09/22 14:48:19;;;;;;;1.57;1.47;;;;;;;23.72;27.64;99101.00;7002068;28;20218;-80
2022/09/22 14:51:46;;;;;;;1.13;1.13;;;;;;;24.13;27.35;99119.00;7001865;28;20192;-79
2022/09/22 14:55:14;;;;;;;1.23;1.20;;;;;;;24.31;27.18;99112.81;7002838;28;20198;-81
2022/09/22 14:58:38;;;;;;;1.50;1.40;;;;;;;23.91;26.12;99110.34;7004643;28;20262;-79
2022/09/22 15:05:39;;;;;;;1.50;1.40;;;;;;;22.72;28.78;99105.94;6992784;28;20667;-79
2022/09/22 15:09:03;;;;;;;1.00;1.00;;;;;;;22.65;28.43;99100.72;7001314;28;20232;-78
2022/09/22 15:12:38;;;;;;;1.90;1.53;;;;;;;22.60;29.04;99100.72;7002246;28;20563;-80
2022/09/22 15:16:01;;;;;;;1.20;1.20;;;;;;;22.55;29.12;99081.47;7002751;28;20294;-79
2022/09/22 15:19:23;;;;;;;1.23;1.13;;;;;;;23.57;27.24;99092.00;7003238;28;20602;-79
2022/09/22 15:22:46;;;;;;;1.83;1.40;;;;;;;22.77;28.87;99097.69;7018375;28;20219;-79
2022/09/22 15:26:14;;;;;;;2.60;1.30;;;;;;;23.34;29.09;99090.72;7031007;28;20344;-79
2022/09/22 15:29:36;;;;;;;1.50;1.40;;;;;;;23.76;28.01;99082.00;7028875;28;20281;-79
2022/09/22 15:33:01;;;;;;;1.60;1.50;;;;;;;23.50;28.64;99077.72;7029633;28;20209;-79
2022/09/22 15:36:24;;;;;;;1.30;1.20;;;;;;;23.49;28.61;99084.34;7029970;28;20197;-79
2022/09/22 15:39:45;;;;;;;1.63;1.30;;;;;;;23.31;28.47;99079.47;7029592;28;20651;-79
2022/09/22 15:43:11;;;;;;;1.40;1.30;;;;;;;22.46;29.09;99091.38;7028118;28;20767;-79
2022/09/22 15:46:34;;;;;;;2.33;1.27;;;;;;;22.60;29.17;99062.22;7029788;28;20254;-79
2022/09/22 15:49:58;;;;;;;1.47;1.37;;;;;;;23.44;28.32;99076.94;7029284;28;20652;-79
2022/09/22 15:53:20;;;;;;;1.77;1.67;;;;;;;23.11;29.47;99079.47;7030294;28;20213;-79
2022/09/22 15:56:41;;;;;;;3.57;1.60;;;;;;;23.16;29.57;99069.31;7030116;28;20233;-79
2022/09/22 16:00:04;;;;;;;1.57;1.47;;;;;;;23.17;28.61;99081.97;7028842;28;20557;-79
2022/09/22 16:03:26;;;;;;;1.60;1.50;;;;;;;23.28;28.78;99077.25;7028318;28;20225;-79
2022/09/22 16:06:53;;;;;;;1.40;1.30;;;;;;;22.88;29.44;99083.66;7028462;28;20247;-79
2022/09/22 16:10:15;;;;;;;4.80;1.57;;;;;;;22.93;28.80;99078.16;7028260;28;20187;-79
2022/09/22 16:13:39;;;;;;;2.57;1.23;;;;;;;22.80;30.03;99081.47;7028662;28;20220;-78
2022/09/22 16:17:00;;;;;;;1.80;1.30;;;;;;;22.59;29.88;99076.28;7029669;28;20239;-79
2022/09/22 16:20:22;;;;;;;1.53;1.43;;;;;;;22.88;30.12;99069.91;7030249;28;20283;-79
2022/09/22 16:23:44;;;;;;;1.50;1.40;;;;;;;22.69;29.60;99071.59;7017166;28;20313;-79
2022/09/22 16:27:06;;;;;;;4.37;1.43;;;;;;;22.77;29.54;99060.00;7035004;28;20780;-79
2022/09/22 16:30:28;;;;;;;2.47;1.50;;;;;;;22.54;29.88;99060.59;7036829;28;20224;-78
2022/09/22 16:33:53;;;;;;;2.47;1.60;;;;;;;22.77;30.29;99078.47;7034814;28;20686;-78